createdAt,value
2019-04-29T00:02:12.066Z,125.87
2019-04-29T00:04:41.593Z,144.43
2019-04-29T00:07:10.042Z,123.37
2019-04-29T00:09:38.154Z,141.87
2019-04-29T00:12:05.978Z,126.90
2019-04-29T00:14:34.420Z,142.93
2019-04-29T00:17:14.633Z,114.50
2019-04-29T00:19:52.382Z,130.37
2019-04-29T00:22:19.791Z,99.90
2019-04-29T00:24:47.181Z,127.97
2019-04-29T00:27:14.731Z,117.53
2019-04-29T00:29:42.216Z,128.53
2019-04-29T00:32:10.384Z,121.83
2019-04-29T00:34:38.158Z,135.40
2019-04-29T00:37:16.064Z,115.77
2019-04-29T00:40:04.235Z,124.97
2019-04-29T00:42:47.810Z,129.17
2019-04-29T00:45:15.501Z,128.43
2019-04-29T00:47:45.796Z,131.00
2019-04-29T00:50:14.327Z,128.23
2019-04-29T00:52:42.127Z,128.00
2019-04-29T00:55:13.218Z,135.67
2019-04-29T00:57:40.590Z,132.67
2019-04-29T01:00:11.544Z,127.67
2019-04-29T01:02:39.873Z,124.50
2019-04-29T01:05:07.508Z,127.20
2019-04-29T01:07:35.176Z,134.37
2019-04-29T01:10:02.960Z,132.23
2019-04-29T01:12:30.437Z,129.13
2019-04-29T01:14:57.890Z,128.07
2019-04-29T01:17:26.171Z,120.33
2019-04-29T01:19:53.647Z,123.10
2019-04-29T01:22:21.758Z,123.87
2019-04-29T01:24:49.111Z,140.37
2019-04-29T01:27:22.616Z,120.80
2019-04-29T01:29:49.958Z,136.53
2019-04-29T01:32:17.639Z,127.93
2019-04-29T01:34:51.807Z,134.27
2019-04-29T01:37:19.262Z,134.33
2019-04-29T01:40:04.585Z,130.73
2019-04-29T01:42:37.314Z,129.17
2019-04-29T01:45:05.049Z,132.43
2019-04-29T01:47:32.500Z,120.17
2019-04-29T01:49:59.854Z,131.10
2019-04-29T01:52:27.206Z,116.57
2019-04-29T01:54:54.593Z,124.40
2019-04-29T01:57:22.028Z,119.03
2019-04-29T01:59:49.589Z,126.30
2019-04-29T02:02:16.974Z,130.47
2019-04-29T02:04:44.418Z,128.67
2019-04-29T02:07:12.011Z,123.53
2019-04-29T02:09:57.839Z,127.13
2019-04-29T02:12:25.165Z,120.73
2019-04-29T02:14:52.509Z,124.23
2019-04-29T02:17:19.973Z,120.23
2019-04-29T02:19:47.417Z,127.23
2019-04-29T02:22:30.618Z,129.67
2019-04-29T02:25:11.197Z,136.53
2019-04-29T02:27:38.672Z,124.77
2019-04-29T02:30:07.231Z,131.17
2019-04-29T02:32:34.805Z,124.20
2019-04-29T02:35:02.377Z,133.00
2019-04-29T02:37:33.921Z,123.23
2019-04-29T02:40:10.747Z,123.67
2019-04-29T02:42:53.797Z,131.50
2019-04-29T02:45:25.833Z,134.60
2019-04-29T02:47:53.276Z,119.50
2019-04-29T02:50:20.761Z,122.70
2019-04-29T02:52:48.049Z,116.07
2019-04-29T02:55:19.847Z,120.33
2019-04-29T02:58:05.396Z,125.87
2019-04-29T03:00:56.353Z,114.47
2019-04-29T03:03:31.033Z,116.00
2019-04-29T03:06:00.167Z,117.97
2019-04-29T03:08:27.604Z,111.50
2019-04-29T03:10:54.945Z,122.43
2019-04-29T03:13:22.455Z,112.53
2019-04-29T03:15:50.112Z,113.50
2019-04-29T03:18:19.208Z,121.30
2019-04-29T03:21:00.547Z,110.57
2019-04-29T03:23:28.086Z,114.43
2019-04-29T03:25:56.080Z,117.67
2019-04-29T03:28:23.558Z,113.97
2019-04-29T03:30:51.150Z,115.53
2019-04-29T03:33:18.499Z,113.07
2019-04-29T03:35:46.570Z,114.70
2019-04-29T03:38:13.961Z,117.90
2019-04-29T03:40:42.406Z,109.63
2019-04-29T03:43:09.862Z,112.40
2019-04-29T03:45:37.367Z,113.27
2019-04-29T03:48:04.848Z,112.77
2019-04-29T03:50:32.361Z,115.43
2019-04-29T03:52:59.728Z,117.97
2019-04-29T03:55:39.055Z,113.77
2019-04-29T03:57:57.367Z,118.40
2019-04-29T04:00:25.031Z,112.83
2019-04-29T04:02:58.629Z,109.83
2019-04-29T04:05:33.372Z,116.63
2019-04-29T04:08:28.493Z,114.43
2019-04-29T04:10:55.855Z,117.87
2019-04-29T04:13:23.324Z,114.93
2019-04-29T04:15:50.682Z,112.83
2019-04-29T04:18:25.567Z,113.77
2019-04-29T04:20:52.901Z,110.53
2019-04-29T04:23:21.332Z,118.17
2019-04-29T04:25:48.738Z,121.80
2019-04-29T04:28:16.243Z,123.03
2019-04-29T04:30:43.598Z,116.60
2019-04-29T04:33:11.006Z,123.93
2019-04-29T04:35:38.651Z,112.60
2019-04-29T04:38:06.222Z,124.00
2019-04-29T04:40:38.392Z,116.93
2019-04-29T04:43:05.909Z,114.20
2019-04-29T04:45:33.366Z,117.30
2019-04-29T04:48:00.744Z,117.40
2019-04-29T04:50:28.261Z,111.83
2019-04-29T04:52:55.600Z,117.10
2019-04-29T04:55:25.858Z,115.00
2019-04-29T04:57:53.259Z,113.80
2019-04-29T05:00:23.045Z,119.80
2019-04-29T05:02:50.439Z,108.43
2019-04-29T05:05:17.920Z,111.40
2019-04-29T05:07:45.468Z,114.10
2019-04-29T05:10:12.900Z,117.70
2019-04-29T05:12:41.325Z,116.73
2019-04-29T05:15:09.543Z,114.67
2019-04-29T05:17:36.973Z,119.43
2019-04-29T05:20:04.626Z,114.63
2019-04-29T05:22:33.184Z,120.20
2019-04-29T05:25:00.598Z,116.83
2019-04-29T05:27:27.922Z,114.03
2019-04-29T05:30:13.683Z,121.97
2019-04-29T05:32:40.953Z,118.87
2019-04-29T05:35:11.792Z,132.60
2019-04-29T05:37:52.375Z,115.37
2019-04-29T05:40:57.337Z,119.03
2019-04-29T05:43:33.699Z,116.87
2019-04-29T05:46:10.715Z,115.40
2019-04-29T05:48:38.355Z,127.93
2019-04-29T05:51:28.597Z,117.07
2019-04-29T05:53:57.337Z,115.63
2019-04-29T05:56:24.906Z,117.37
2019-04-29T05:58:52.221Z,113.80
2019-04-29T06:01:22.904Z,120.40
2019-04-29T06:03:50.308Z,113.83
2019-04-29T06:06:17.725Z,117.63
2019-04-29T06:08:45.081Z,111.63
2019-04-29T06:11:12.714Z,114.13
2019-04-29T06:13:41.236Z,119.00
2019-04-29T06:16:08.562Z,114.07
2019-04-29T06:18:36.027Z,116.47
2019-04-29T06:21:09.384Z,122.50
2019-04-29T06:23:33.041Z,113.90
2019-04-29T06:26:47.919Z,116.80
2019-04-29T06:29:15.445Z,128.80
2019-04-29T06:31:42.885Z,117.20
2019-04-29T06:34:10.333Z,131.40
2019-04-29T06:36:37.616Z,122.53
2019-04-29T06:39:05.978Z,123.77
2019-04-29T06:41:33.339Z,117.43
2019-04-29T06:44:05.742Z,128.53
2019-04-29T06:46:30.086Z,113.60
2019-04-29T06:49:09.558Z,120.10
2019-04-29T06:51:26.793Z,116.13
2019-04-29T06:53:56.046Z,120.40
2019-04-29T06:56:24.163Z,117.33
2019-04-29T06:58:51.682Z,115.43
2019-04-29T07:01:18.988Z,117.30
2019-04-29T07:03:46.551Z,117.90
2019-04-29T07:06:14.004Z,121.73
2019-04-29T07:08:41.831Z,115.00
2019-04-29T07:11:10.137Z,118.20
2019-04-29T07:13:38.438Z,126.00
2019-04-29T07:16:05.890Z,118.37
2019-04-29T07:18:33.572Z,124.90
2019-04-29T07:21:01.076Z,118.43
2019-04-29T07:23:28.425Z,115.27
2019-04-29T07:25:55.973Z,128.70
2019-04-29T07:28:24.673Z,120.97
2019-04-29T07:31:10.037Z,116.43
2019-04-29T07:33:22.633Z,128.13
2019-04-29T07:35:50.859Z,114.10
2019-04-29T07:38:19.135Z,124.43
2019-04-29T07:40:46.571Z,117.90
2019-04-29T07:43:15.234Z,124.73
2019-04-29T07:45:58.766Z,116.70
2019-04-29T07:48:29.389Z,119.93
2019-04-29T07:50:59.530Z,116.93
2019-04-29T07:53:34.364Z,127.33
2019-04-29T07:55:55.419Z,119.17
2019-04-29T07:58:27.241Z,118.67
2019-04-29T08:00:56.232Z,124.17
2019-04-29T08:03:23.671Z,122.97
2019-04-29T08:05:51.836Z,111.33
2019-04-29T08:09:18.295Z,119.67
2019-04-29T08:11:47.212Z,122.50
2019-04-29T08:14:15.727Z,138.43
2019-04-29T08:16:43.317Z,121.67
2019-04-29T08:19:10.697Z,140.17
2019-04-29T08:21:38.350Z,119.40
2019-04-29T08:24:05.985Z,142.17
2019-04-29T08:26:38.504Z,116.43
2019-04-29T08:29:04.325Z,129.50
2019-04-29T08:31:32.610Z,115.00
2019-04-29T08:34:00.919Z,122.53
2019-04-29T08:36:28.232Z,122.60
2019-04-29T08:39:07.909Z,117.00
2019-04-29T08:41:28.646Z,126.27
2019-04-29T08:44:15.677Z,132.07
2019-04-29T08:46:44.467Z,119.37
2019-04-29T08:49:14.848Z,131.20
2019-04-29T08:51:42.251Z,120.00
2019-04-29T08:54:09.647Z,136.57
2019-04-29T08:56:42.476Z,119.10
2019-04-29T08:59:06.183Z,129.20
2019-04-29T09:01:34.218Z,122.53
2019-04-29T09:04:03.054Z,135.03
2019-04-29T09:06:32.673Z,128.00
2019-04-29T09:09:00.045Z,132.77
2019-04-29T09:11:27.841Z,121.07
2019-04-29T09:13:55.312Z,119.40
2019-04-29T09:16:22.758Z,122.37
2019-04-29T09:18:50.100Z,121.93
2019-04-29T09:21:17.586Z,145.17
2019-04-29T09:24:22.838Z,118.60
2019-04-29T09:26:55.722Z,123.07
2019-04-29T09:29:36.259Z,135.33
2019-04-29T09:32:04.979Z,117.60
2019-04-29T09:34:32.429Z,132.53
2019-04-29T09:37:00.040Z,121.53
2019-04-29T09:39:27.630Z,137.20
2019-04-29T09:42:23.739Z,117.87
2019-04-29T09:45:19.534Z,124.23
2019-04-29T09:47:45.326Z,134.40
2019-04-29T09:50:20.541Z,125.93
2019-04-29T09:52:48.917Z,117.43
2019-04-29T09:55:17.878Z,122.67
2019-04-29T09:57:45.491Z,131.63
2019-04-29T10:00:27.519Z,128.47
2019-04-29T10:03:03.055Z,124.77
2019-04-29T10:05:50.538Z,129.30
2019-04-29T10:08:18.400Z,125.13
2019-04-29T10:10:45.693Z,122.50
2019-04-29T10:13:13.243Z,123.37
2019-04-29T10:16:04.628Z,128.23
2019-04-29T10:18:39.091Z,121.63
2019-04-29T10:21:11.641Z,118.67
2019-04-29T10:23:39.431Z,123.80
2019-04-29T10:26:06.937Z,134.57
2019-04-29T10:28:45.403Z,124.57
2019-04-29T10:31:12.924Z,128.30
2019-04-29T10:33:40.246Z,124.17
2019-04-29T10:36:10.824Z,124.90
2019-04-29T10:38:40.526Z,124.90
2019-04-29T10:41:22.427Z,127.47
2019-04-29T10:44:12.436Z,147.53
2019-04-29T10:47:02.494Z,123.10
2019-04-29T10:49:34.778Z,131.80
2019-04-29T10:52:04.658Z,121.20
2019-04-29T10:54:33.241Z,134.03
2019-04-29T10:57:00.760Z,130.47
2019-04-29T10:59:35.922Z,154.93
2019-04-29T11:02:22.606Z,129.97
2019-04-29T11:04:52.770Z,146.77
2019-04-29T11:07:46.374Z,130.33
2019-04-29T11:10:25.736Z,135.00
2019-04-29T11:12:53.783Z,124.77
2019-04-29T11:15:23.453Z,126.77
2019-04-29T11:17:58.929Z,127.83
2019-04-29T11:20:21.760Z,131.03
2019-04-29T11:22:56.021Z,143.40
2019-04-29T11:25:51.013Z,130.47
2019-04-29T11:28:17.591Z,131.13
2019-04-29T11:30:45.465Z,126.47
2019-04-29T11:33:21.857Z,135.17
2019-04-29T11:36:03.923Z,135.10
2019-04-29T11:38:38.035Z,130.30
2019-04-29T11:41:02.985Z,136.53
2019-04-29T11:43:31.823Z,124.07
2019-04-29T11:45:59.303Z,131.10
2019-04-29T11:48:26.757Z,141.77
2019-04-29T11:51:03.916Z,125.37
2019-04-29T11:53:33.917Z,129.47
2019-04-29T11:56:02.263Z,122.33
2019-04-29T11:58:37.687Z,126.83
2019-04-29T12:01:37.951Z,131.93
2019-04-29T12:03:58.222Z,126.10
2019-04-29T12:06:31.589Z,128.63
2019-04-29T12:08:59.606Z,122.80
2019-04-29T12:11:28.648Z,128.73
2019-04-29T12:14:09.303Z,131.07
2019-04-29T12:16:40.486Z,126.07
2019-04-29T12:19:21.379Z,139.77
2019-04-29T12:21:47.279Z,132.30
2019-04-29T12:24:14.880Z,132.90
2019-04-29T12:26:44.363Z,122.87
2019-04-29T12:29:16.346Z,140.43
2019-04-29T12:31:51.323Z,123.13
2019-04-29T12:34:31.295Z,136.87
2019-04-29T12:36:59.453Z,128.40
2019-04-29T12:40:00.572Z,142.77
2019-04-29T12:42:59.328Z,129.43
2019-04-29T12:45:31.017Z,124.33
2019-04-29T12:47:58.354Z,123.83
2019-04-29T12:50:26.879Z,125.47
2019-04-29T12:52:54.213Z,129.03
2019-04-29T12:55:43.624Z,125.27
2019-04-29T12:57:58.087Z,136.87
2019-04-29T13:00:29.473Z,131.27
2019-04-29T13:03:03.902Z,127.43
2019-04-29T13:06:09.376Z,125.93
2019-04-29T13:08:42.779Z,131.53
2019-04-29T13:11:10.336Z,123.73
2019-04-29T13:13:38.476Z,125.87
2019-04-29T13:16:22.047Z,124.27
2019-04-29T13:19:10.416Z,118.57
2019-04-29T13:21:26.262Z,127.47
2019-04-29T13:24:05.310Z,131.13
2019-04-29T13:26:28.341Z,126.67
2019-04-29T13:29:00.367Z,123.27
2019-04-29T13:31:37.140Z,126.80
2019-04-29T13:33:53.253Z,118.73
2019-04-29T13:36:26.014Z,126.93
2019-04-29T13:38:52.098Z,131.50
2019-04-29T13:41:24.322Z,124.67
2019-04-29T13:43:51.545Z,126.83
2019-04-29T13:46:26.056Z,148.23
2019-04-29T13:49:25.140Z,123.43
2019-04-29T13:51:53.467Z,126.10
2019-04-29T13:54:22.982Z,145.63
2019-04-29T13:56:56.024Z,122.57
2019-04-29T13:59:28.195Z,133.57
2019-04-29T14:02:14.792Z,132.97
2019-04-29T14:04:46.874Z,138.97
2019-04-29T14:07:18.314Z,123.43
2019-04-29T14:09:47.740Z,136.77
2019-04-29T14:12:47.037Z,121.63
2019-04-29T14:14:44.099Z,130.40
2019-04-29T14:17:31.406Z,125.80
2019-04-29T14:19:56.820Z,135.27
2019-04-29T14:22:22.954Z,119.67
2019-04-29T14:24:50.516Z,134.20
2019-04-29T14:27:25.278Z,124.10
2019-04-29T14:29:47.730Z,144.00
2019-04-29T14:32:18.277Z,127.73
2019-04-29T14:35:00.604Z,144.87
2019-04-29T14:37:30.276Z,137.13
2019-04-29T14:39:57.828Z,140.57
2019-04-29T14:42:35.811Z,133.97
2019-04-29T14:45:26.520Z,129.37
2019-04-29T14:48:42.157Z,128.97
2019-04-29T14:51:04.398Z,125.00
2019-04-29T14:53:31.871Z,141.27
2019-04-29T14:55:59.220Z,128.63
2019-04-29T14:58:27.920Z,134.27
2019-04-29T15:02:01.250Z,119.40
2019-04-29T15:04:32.453Z,135.17
2019-04-29T15:07:00.462Z,123.80
2019-04-29T15:09:28.091Z,131.27
2019-04-29T15:12:08.143Z,134.40
2019-04-29T15:14:54.661Z,134.40
2019-04-29T15:17:32.417Z,132.07
2019-04-29T15:20:06.778Z,130.17
2019-04-29T15:22:36.966Z,127.87
2019-04-29T15:25:05.305Z,127.27
2019-04-29T15:27:33.448Z,125.27
2019-04-29T15:30:00.966Z,133.70
2019-04-29T15:32:31.188Z,127.27
2019-04-29T15:34:58.688Z,137.27
2019-04-29T15:37:26.236Z,124.43
2019-04-29T15:39:57.816Z,134.17
2019-04-29T15:42:24.494Z,131.07
2019-04-29T15:44:55.880Z,137.00
2019-04-29T15:47:21.744Z,128.97
2019-04-29T15:49:49.700Z,138.20
2019-04-29T15:52:21.113Z,130.83
2019-04-29T15:54:50.987Z,137.40
2019-04-29T15:57:16.629Z,125.23
2019-04-29T15:59:48.987Z,134.70
2019-04-29T16:02:15.476Z,127.13
2019-04-29T16:04:48.695Z,133.23
2019-04-29T16:07:32.871Z,124.00
2019-04-29T16:10:25.159Z,125.33
2019-04-29T16:12:59.433Z,124.00
2019-04-29T16:15:26.898Z,134.83
2019-04-29T16:17:54.311Z,127.37
2019-04-29T16:20:21.820Z,133.03
2019-04-29T16:22:54.361Z,128.80
2019-04-29T16:25:18.955Z,126.33
2019-04-29T16:27:52.926Z,135.70
2019-04-29T16:30:19.135Z,135.17
2019-04-29T16:32:47.121Z,129.03
2019-04-29T16:35:17.874Z,139.57
2019-04-29T16:37:44.118Z,131.33
2019-04-29T16:40:11.915Z,128.40
2019-04-29T16:42:56.600Z,138.33
2019-04-29T16:45:35.938Z,133.33
2019-04-29T16:48:06.771Z,127.70
2019-04-29T16:50:36.647Z,133.73
2019-04-29T16:53:04.439Z,131.27
2019-04-29T16:55:35.983Z,134.57
2019-04-29T16:58:07.652Z,130.37
2019-04-29T17:00:33.657Z,133.80
2019-04-29T17:03:01.299Z,130.97
2019-04-29T17:05:29.070Z,134.60
2019-04-29T17:07:57.087Z,134.23
2019-04-29T17:10:35.537Z,130.10
2019-04-29T17:13:03.636Z,131.63
2019-04-29T17:15:34.219Z,135.97
2019-04-29T17:18:03.870Z,140.93
2019-04-29T17:20:31.673Z,134.93
2019-04-29T17:23:00.124Z,137.20
2019-04-29T17:25:29.494Z,136.60
2019-04-29T17:28:11.974Z,138.70
2019-04-29T17:31:13.636Z,142.10
2019-04-29T17:33:51.527Z,148.20
2019-04-29T17:36:23.781Z,133.67
2019-04-29T17:38:49.694Z,140.70
2019-04-29T17:41:17.255Z,142.13
2019-04-29T17:44:14.579Z,146.60
2019-04-29T17:47:00.985Z,154.03
2019-04-29T17:49:37.107Z,163.90
2019-04-29T17:52:13.203Z,146.80
2019-04-29T17:54:44.937Z,159.67
2019-04-29T17:57:46.508Z,142.20
2019-04-29T18:00:42.265Z,143.40
2019-04-29T18:03:41.618Z,159.43
2019-04-29T18:06:18.795Z,151.50
2019-04-29T18:08:59.897Z,136.93
2019-04-29T18:11:27.938Z,162.57
2019-04-29T18:13:58.997Z,161.83
2019-04-29T18:16:43.706Z,143.97
2019-04-29T18:19:18.175Z,156.13
2019-04-29T18:22:24.827Z,144.33
2019-04-29T18:25:30.059Z,156.97
2019-04-29T18:27:53.518Z,151.63
2019-04-29T18:30:35.498Z,143.13
2019-04-29T18:32:55.905Z,148.40
2019-04-29T18:35:25.564Z,166.37
2019-04-29T18:37:55.631Z,144.13
2019-04-29T18:40:27.060Z,152.90
2019-04-29T18:42:56.644Z,147.43
2019-04-29T18:45:30.059Z,146.30
2019-04-29T18:47:57.058Z,143.53
2019-04-29T18:50:25.325Z,140.40
2019-04-29T18:52:58.644Z,144.53
2019-04-29T18:55:28.140Z,139.93
2019-04-29T18:57:58.452Z,141.63
2019-04-29T19:00:31.125Z,148.37
2019-04-29T19:03:01.091Z,137.73
2019-04-29T19:05:39.802Z,144.87
2019-04-29T19:08:14.332Z,149.93
2019-04-29T19:10:37.430Z,132.27
2019-04-29T19:13:14.210Z,150.53
2019-04-29T19:15:35.450Z,137.37
2019-04-29T19:18:06.109Z,141.50
2019-04-29T19:20:33.426Z,140.80
2019-04-29T19:23:08.211Z,143.83
2019-04-29T19:25:32.014Z,143.23
2019-04-29T19:28:11.389Z,135.20
2019-04-29T19:30:29.416Z,137.43
2019-04-29T19:33:00.413Z,142.63
2019-04-29T19:35:29.421Z,138.00
2019-04-29T19:38:47.251Z,136.77
2019-04-29T19:41:16.274Z,152.67
2019-04-29T19:43:48.382Z,137.30
2019-04-29T19:46:22.701Z,143.63
2019-04-29T19:48:42.918Z,145.47
2019-04-29T19:51:22.932Z,135.03
2019-04-29T19:53:50.038Z,149.50
2019-04-29T19:56:23.417Z,156.77
2019-04-29T19:58:47.696Z,149.43
2019-04-29T20:01:32.127Z,147.17
2019-04-29T20:04:32.882Z,147.13
2019-04-29T20:07:06.289Z,146.37
2019-04-29T20:09:36.642Z,153.97
2019-04-29T20:12:12.805Z,145.47
2019-04-29T20:14:37.235Z,173.00
2019-04-29T20:17:30.890Z,137.90
2019-04-29T20:20:09.721Z,156.73
2019-04-29T20:22:43.001Z,163.43
2019-04-29T20:25:30.799Z,152.50
2019-04-29T20:28:28.040Z,160.37
2019-04-29T20:31:15.360Z,138.00
2019-04-29T20:33:34.308Z,156.63
2019-04-29T20:36:06.073Z,144.47
2019-04-29T20:38:38.749Z,158.83
2019-04-29T20:41:08.008Z,147.90
2019-04-29T20:43:36.017Z,154.70
2019-04-29T20:46:04.528Z,163.87
2019-04-29T20:48:32.317Z,168.67
2019-04-29T20:51:10.623Z,161.30
2019-04-29T20:53:44.179Z,173.70
2019-04-29T20:56:23.585Z,166.67
2019-04-29T20:58:44.462Z,157.50
2019-04-29T21:01:18.815Z,165.07
2019-04-29T21:03:52.043Z,172.20
2019-04-29T21:06:15.837Z,162.13
2019-04-29T21:08:46.703Z,165.73
2019-04-29T21:11:21.004Z,157.63
2019-04-29T21:14:08.573Z,159.83
2019-04-29T21:16:41.084Z,156.60
2019-04-29T21:19:09.127Z,175.70
2019-04-29T21:21:41.317Z,164.27
2019-04-29T21:24:13.763Z,165.47
2019-04-29T21:26:37.940Z,158.33
2019-04-29T21:29:06.074Z,173.67
2019-04-29T21:31:35.538Z,162.03
2019-04-29T21:34:05.431Z,150.93
2019-04-29T21:37:05.934Z,146.80
2019-04-29T21:39:42.018Z,167.20
2019-04-29T21:42:35.731Z,143.03
2019-04-29T21:45:03.964Z,163.63
2019-04-29T21:47:42.676Z,159.90
2019-04-29T21:50:02.568Z,155.00
2019-04-29T21:52:30.484Z,153.50
2019-04-29T21:54:58.058Z,161.70
2019-04-29T21:57:25.792Z,160.03
2019-04-29T21:59:55.541Z,163.30
2019-04-29T22:02:26.073Z,148.93
2019-04-29T22:04:55.196Z,162.67
2019-04-29T22:07:23.095Z,154.07
2019-04-29T22:09:50.605Z,153.80
2019-04-29T22:12:20.278Z,142.57
2019-04-29T22:14:53.019Z,162.67
2019-04-29T22:17:17.356Z,158.10
2019-04-29T22:19:45.194Z,152.30
2019-04-29T22:22:12.706Z,151.10
2019-04-29T22:24:40.162Z,152.07
2019-04-29T22:27:08.279Z,144.27
2019-04-29T22:29:37.487Z,164.03
2019-04-29T22:32:07.788Z,150.37
2019-04-29T22:34:35.989Z,165.63
2019-04-29T22:37:05.381Z,147.70
2019-04-29T22:39:33.119Z,152.57
2019-04-29T22:42:07.179Z,150.47
2019-04-29T22:44:36.056Z,155.97
2019-04-29T22:47:05.642Z,137.60
2019-04-29T22:49:34.079Z,158.30
2019-04-29T22:52:01.515Z,151.73
2019-04-29T22:54:29.170Z,147.87
2019-04-29T22:56:56.833Z,146.33
2019-04-29T22:59:25.393Z,163.10
2019-04-29T23:01:53.275Z,134.90
2019-04-29T23:04:20.743Z,154.93
2019-04-29T23:06:48.217Z,142.07
2019-04-29T23:09:15.730Z,138.63
2019-04-29T23:11:45.028Z,135.20
2019-04-29T23:14:12.743Z,165.73
2019-04-29T23:16:41.229Z,152.60
2019-04-29T23:19:13.891Z,155.33
2019-04-29T23:22:05.905Z,143.17
2019-04-29T23:24:52.728Z,167.47
2019-04-29T23:27:20.167Z,146.70
2019-04-29T23:29:47.522Z,158.93
2019-04-29T23:32:15.373Z,146.13
2019-04-29T23:34:44.002Z,156.73
2019-04-29T23:37:11.460Z,144.70
2019-04-29T23:39:39.521Z,138.77
2019-04-29T23:42:12.310Z,136.83
2019-04-29T23:44:41.852Z,147.57
2019-04-29T23:47:10.241Z,131.10
2019-04-29T23:49:42.358Z,151.73
2019-04-29T23:52:06.803Z,133.70
2019-04-29T23:54:44.195Z,161.23
2019-04-29T23:57:24.027Z,152.57
